Time;durP1;ratioP1;P1;durP2;ratioP2;P2;SDS_P1;SDS_P2;PMS_P1;PMS_P2;Temp;Humidity;BMP_temperature;BMP_pressure;BME280_temperature;BME280_humidity;BME280_pressure;Samples;Min_cycle;Max_cycle;Signal;HPM_P1;HPM_P2
2023/12/27 00:01:57;;;;;;;22.90;6.38;;;;;;;;;;6369817;22;20531;-76
2023/12/27 00:04:23;;;;;;;19.13;6.15;;;;;;;;;;6360477;22;20014;-76
2023/12/27 00:06:48;;;;;;;20.73;5.80;;;;;;;;;;6372249;22;20767;-76
2023/12/27 00:09:13;;;;;;;18.85;5.43;;;;;;;;;;6389097;22;20009;-76
2023/12/27 00:11:39;;;;;;;19.08;5.93;;;;;;;;;;6388804;22;20330;-76
2023/12/27 00:14:04;;;;;;;16.13;4.50;;;;;;;;;;6360624;22;20024;-76
2023/12/27 00:16:30;;;;;;;16.75;4.82;;;;;;;;;;6360106;22;20014;-76
2023/12/27 00:18:55;;;;;;;17.67;4.97;;;;;;;;;;6388562;22;20071;-76
2023/12/27 00:21:21;;;;;;;17.63;4.90;;;;;;;;;;6387895;22;20479;-75
2023/12/27 00:23:47;;;;;;;10.90;3.97;;;;;;;;;;6388388;22;20006;-76
2023/12/27 00:26:12;;;;;;;14.35;4.32;;;;;;;;;;6360752;22;20001;-76
2023/12/27 00:28:38;;;;;;;14.00;4.20;;;;;;;;;;6388137;22;20473;-76
2023/12/27 00:31:03;;;;;;;14.43;4.90;;;;;;;;;;6359622;22;20010;-76
2023/12/27 00:33:29;;;;;;;13.00;4.60;;;;;;;;;;6359999;22;20010;-76
2023/12/27 00:35:54;;;;;;;12.18;4.32;;;;;;;;;;6359689;22;20084;-76
2023/12/27 00:38:19;;;;;;;20.73;5.22;;;;;;;;;;6359658;22;20055;-76
2023/12/27 00:40:45;;;;;;;12.52;4.50;;;;;;;;;;6359372;22;20473;-75
2023/12/27 00:43:10;;;;;;;18.55;4.78;;;;;;;;;;6388459;22;20420;-75
2023/12/27 00:45:36;;;;;;;16.05;5.13;;;;;;;;;;6387225;22;20014;-75
2023/12/27 00:48:01;;;;;;;13.80;4.38;;;;;;;;;;6359241;22;20006;-75
2023/12/27 00:50:26;;;;;;;15.00;4.55;;;;;;;;;;6388805;22;19998;-76
2023/12/27 00:52:52;;;;;;;10.40;4.40;;;;;;;;;;6359397;22;20089;-76
2023/12/27 00:55:17;;;;;;;10.02;3.85;;;;;;;;;;6359456;22;20459;-76
2023/12/27 00:57:42;;;;;;;10.35;4.30;;;;;;;;;;6359980;22;20886;-76
2023/12/27 01:00:08;;;;;;;15.30;4.30;;;;;;;;;;6387909;22;20010;-76
2023/12/27 01:02:35;;;;;;;12.73;4.38;;;;;;;;;;6359833;22;20006;-76
2023/12/27 01:05:00;;;;;;;16.23;4.18;;;;;;;;;;6359734;22;20032;-75
2023/12/27 01:07:26;;;;;;;9.55;3.58;;;;;;;;;;6388496;22;20638;-75
2023/12/27 01:09:51;;;;;;;10.80;4.38;;;;;;;;;;6360002;22;20093;-76
2023/12/27 01:12:16;;;;;;;14.73;3.95;;;;;;;;;;6388728;22;20009;-76
2023/12/27 01:14:42;;;;;;;11.00;4.25;;;;;;;;;;6364439;22;20032;-76
2023/12/27 01:17:07;;;;;;;17.63;4.05;;;;;;;;;;6372801;22;19994;-76
2023/12/27 01:19:33;;;;;;;14.25;4.72;;;;;;;;;;6399455;22;20047;-76
2023/12/27 01:21:58;;;;;;;13.65;4.32;;;;;;;;;;6388011;22;20072;-75
2023/12/27 01:24:23;;;;;;;11.77;4.68;;;;;;;;;;6387903;22;20024;-76
2023/12/27 01:26:49;;;;;;;14.68;4.35;;;;;;;;;;6387801;22;20344;-76
2023/12/27 01:29:14;;;;;;;13.63;4.20;;;;;;;;;;6390784;22;20017;-76
2023/12/27 01:31:40;;;;;;;13.15;5.00;;;;;;;;;;6361161;22;20035;-75
2023/12/27 01:34:05;;;;;;;22.45;5.55;;;;;;;;;;6389607;22;20013;-76
2023/12/27 01:36:31;;;;;;;14.85;5.45;;;;;;;;;;6389455;22;20014;-76
2023/12/27 01:38:56;;;;;;;16.90;6.65;;;;;;;;;;6359704;22;20080;-76
2023/12/27 01:41:21;;;;;;;18.05;5.72;;;;;;;;;;6362164;22;20046;-76
2023/12/27 01:43:47;;;;;;;17.13;6.43;;;;;;;;;;6388444;22;20014;-76
2023/12/27 01:46:12;;;;;;;21.00;6.10;;;;;;;;;;6388270;22;20013;-76
2023/12/27 01:48:39;;;;;;;19.77;6.20;;;;;;;;;;6388856;22;20009;-76
2023/12/27 01:51:04;;;;;;;14.57;5.28;;;;;;;;;;6389209;22;20006;-76
2023/12/27 01:53:30;;;;;;;13.73;5.93;;;;;;;;;;6362015;22;19994;-76
2023/12/27 01:55:56;;;;;;;22.85;6.43;;;;;;;;;;6359892;22;20500;-76
2023/12/27 01:58:22;;;;;;;23.67;6.85;;;;;;;;;;6388924;22;20014;-76
2023/12/27 02:00:47;;;;;;;18.48;5.90;;;;;;;;;;6389398;22;20022;-76
2023/12/27 02:03:14;;;;;;;15.57;6.32;;;;;;;;;;6361086;22;20018;-76
2023/12/27 02:05:40;;;;;;;15.20;6.85;;;;;;;;;;6360985;22;20005;-76
2023/12/27 02:08:08;;;;;;;19.98;5.90;;;;;;;;;;6362041;22;20666;-76
2023/12/27 02:10:34;;;;;;;19.88;6.72;;;;;;;;;;6388780;22;20085;-76
2023/12/27 02:13:07;;;;;;;21.60;6.93;;;;;;;;;;6389160;22;20526;-76
2023/12/27 02:15:33;;;;;;;13.52;6.15;;;;;;;;;;6389945;22;20013;-76
2023/12/27 02:18:01;;;;;;;20.80;6.85;;;;;;;;;;6360912;22;20006;-76
2023/12/27 02:20:26;;;;;;;19.60;5.93;;;;;;;;;;6390696;22;20128;-76
2023/12/27 02:22:52;;;;;;;16.20;6.30;;;;;;;;;;6360859;22;20433;-76
2023/12/27 02:25:18;;;;;;;16.38;5.35;;;;;;;;;;6389952;22;20010;-76
2023/12/27 02:27:45;;;;;;;19.45;6.13;;;;;;;;;;6361310;22;20009;-76
2023/12/27 02:30:21;;;;;;;15.27;5.85;;;;;;;;;;6390835;22;20364;-76
2023/12/27 02:32:47;;;;;;;17.05;6.28;;;;;;;;;;6392111;22;20009;-76
2023/12/27 02:35:12;;;;;;;16.35;4.82;;;;;;;;;;6373886;22;20028;-76
2023/12/27 02:37:38;;;;;;;17.50;5.60;;;;;;;;;;6409092;22;20017;-77
2023/12/27 02:40:04;;;;;;;17.00;6.32;;;;;;;;;;6398120;22;20047;-76
2023/12/27 02:42:30;;;;;;;17.05;6.40;;;;;;;;;;6391416;22;20010;-76
2023/12/27 02:44:55;;;;;;;19.70;6.35;;;;;;;;;;6390162;22;19994;-76
2023/12/27 02:47:20;;;;;;;17.60;6.38;;;;;;;;;;6361994;22;20059;-76
2023/12/27 02:49:46;;;;;;;19.75;6.35;;;;;;;;;;6389231;22;20044;-76
2023/12/27 02:52:12;;;;;;;13.82;5.70;;;;;;;;;;6389023;22;20010;-76
2023/12/27 02:54:37;;;;;;;15.07;5.35;;;;;;;;;;6360540;22;20050;-76
2023/12/27 02:57:02;;;;;;;20.65;6.47;;;;;;;;;;6389140;22;20110;-76
2023/12/27 02:59:28;;;;;;;17.67;5.72;;;;;;;;;;6361402;22;20004;-76
2023/12/27 03:01:53;;;;;;;14.35;5.50;;;;;;;;;;6389293;22;20014;-76
2023/12/27 03:04:18;;;;;;;20.80;5.03;;;;;;;;;;6362689;22;20018;-76
2023/12/27 03:06:44;;;;;;;13.70;5.40;;;;;;;;;;6389813;22;20743;-76
2023/12/27 03:09:10;;;;;;;15.60;4.88;;;;;;;;;;6388168;22;20006;-76
2023/12/27 03:11:35;;;;;;;12.23;4.30;;;;;;;;;;6389951;22;20004;-76
2023/12/27 03:14:01;;;;;;;11.18;4.65;;;;;;;;;;6360408;22;20413;-76
2023/12/27 03:16:28;;;;;;;9.98;4.60;;;;;;;;;;6360122;22;20498;-75
2023/12/27 03:18:53;;;;;;;13.13;5.05;;;;;;;;;;6360140;22;20413;-75
2023/12/27 03:21:19;;;;;;;11.85;4.53;;;;;;;;;;6359972;22;20644;-75
2023/12/27 03:23:44;;;;;;;11.00;4.07;;;;;;;;;;6360262;22;20005;-76
2023/12/27 03:26:09;;;;;;;6.45;3.90;;;;;;;;;;6360747;22;19998;-76
2023/12/27 03:28:35;;;;;;;15.63;4.90;;;;;;;;;;6359806;22;20002;-76
2023/12/27 03:31:00;;;;;;;12.25;4.97;;;;;;;;;;6388244;22;20009;-76
2023/12/27 03:33:26;;;;;;;10.10;4.90;;;;;;;;;;6360096;22;20054;-76
2023/12/27 03:35:51;;;;;;;11.40;4.43;;;;;;;;;;6360024;22;20504;-76
2023/12/27 03:38:17;;;;;;;13.02;4.65;;;;;;;;;;6388507;22;20476;-76
2023/12/27 03:40:42;;;;;;;10.95;4.75;;;;;;;;;;6360300;22;20098;-76
2023/12/27 03:43:08;;;;;;;7.53;4.40;;;;;;;;;;6388617;22;20105;-75
2023/12/27 03:45:34;;;;;;;9.07;4.50;;;;;;;;;;6359206;22;20461;-75
2023/12/27 03:47:59;;;;;;;10.13;4.15;;;;;;;;;;6360599;22;20013;-76
2023/12/27 03:50:24;;;;;;;9.82;4.22;;;;;;;;;;6389996;22;19994;-76
2023/12/27 03:52:50;;;;;;;7.55;3.90;;;;;;;;;;6392971;22;20748;-76
2023/12/27 03:55:15;;;;;;;5.53;2.60;;;;;;;;;;6373873;22;20014;-77
2023/12/27 03:57:41;;;;;;;5.78;3.33;;;;;;;;;;6398233;22;20012;-76
2023/12/27 04:00:07;;;;;;;8.48;3.70;;;;;;;;;;6358808;22;20800;-76
2023/12/27 04:02:32;;;;;;;6.25;3.33;;;;;;;;;;6360721;22;20048;-76
2023/12/27 04:04:57;;;;;;;6.78;3.63;;;;;;;;;;6360304;22;20572;-76
2023/12/27 04:07:23;;;;;;;5.47;3.47;;;;;;;;;;6359452;22;20041;-77
2023/12/27 04:09:48;;;;;;;5.43;2.95;;;;;;;;;;6359511;22;20010;-76
2023/12/27 04:12:14;;;;;;;6.05;3.03;;;;;;;;;;6360126;22;20096;-77
2023/12/27 04:14:39;;;;;;;7.78;3.42;;;;;;;;;;6358440;22;20074;-76
2023/12/27 04:17:04;;;;;;;5.43;3.03;;;;;;;;;;6387943;22;20050;-76
2023/12/27 04:19:30;;;;;;;8.00;3.25;;;;;;;;;;6360070;22;20020;-76
2023/12/27 04:21:55;;;;;;;5.90;3.20;;;;;;;;;;6387896;22;20457;-76
2023/12/27 04:24:20;;;;;;;6.88;3.63;;;;;;;;;;6388049;22;20071;-76
2023/12/27 04:26:46;;;;;;;5.85;3.15;;;;;;;;;;6387896;22;20439;-76
2023/12/27 04:29:11;;;;;;;5.07;2.78;;;;;;;;;;6389231;22;20004;-76
2023/12/27 04:31:37;;;;;;;6.82;3.75;;;;;;;;;;6387853;22;20009;-75
2023/12/27 04:34:02;;;;;;;8.27;3.28;;;;;;;;;;6359958;22;20017;-75
2023/12/27 04:36:28;;;;;;;6.25;3.33;;;;;;;;;;6359293;22;20464;-76
2023/12/27 04:38:53;;;;;;;6.93;3.40;;;;;;;;;;6359515;22;20093;-75
2023/12/27 04:41:18;;;;;;;8.77;3.55;;;;;;;;;;6388078;22;19994;-76
2023/12/27 04:43:44;;;;;;;7.47;3.67;;;;;;;;;;6359561;22;20014;-76
2023/12/27 04:46:10;;;;;;;6.85;3.72;;;;;;;;;;6387670;22;20059;-76
2023/12/27 04:48:36;;;;;;;6.93;3.47;;;;;;;;;;6388077;22;20008;-76
2023/12/27 04:51:01;;;;;;;4.82;2.78;;;;;;;;;;6388779;22;20006;-76
2023/12/27 04:53:26;;;;;;;6.53;3.45;;;;;;;;;;6388778;22;19994;-76
2023/12/27 04:55:52;;;;;;;5.32;2.95;;;;;;;;;;6359340;22;20018;-76
2023/12/27 04:58:17;;;;;;;7.28;3.08;;;;;;;;;;6360251;22;20017;-76
2023/12/27 05:00:43;;;;;;;8.82;3.92;;;;;;;;;;6388403;22;20006;-76
2023/12/27 05:03:08;;;;;;;6.85;3.22;;;;;;;;;;6389509;22;20113;-76
2023/12/27 05:05:34;;;;;;;9.07;4.28;;;;;;;;;;6362723;22;20508;-76
2023/12/27 05:07:59;;;;;;;5.28;2.53;;;;;;;;;;6363096;22;20468;-76
2023/12/27 05:10:24;;;;;;;7.65;3.22;;;;;;;;;;6363570;22;20010;-76
2023/12/27 05:12:50;;;;;;;7.78;3.97;;;;;;;;;;6398553;22;20006;-76
2023/12/27 05:15:15;;;;;;;8.27;4.07;;;;;;;;;;6409073;22;20006;-77
2023/12/27 05:17:41;;;;;;;7.95;3.33;;;;;;;;;;6372438;22;20012;-76
2023/12/27 05:20:07;;;;;;;7.85;4.35;;;;;;;;;;6368475;22;20509;-76
2023/12/27 05:22:34;;;;;;;8.82;4.20;;;;;;;;;;6392316;22;20414;-76
2023/12/27 05:25:02;;;;;;;11.20;3.88;;;;;;;;;;6391197;22;20070;-76
2023/12/27 05:27:28;;;;;;;7.90;4.32;;;;;;;;;;6362040;22;20013;-77
2023/12/27 05:29:54;;;;;;;5.88;2.92;;;;;;;;;;6390239;22;19994;-76
2023/12/27 05:32:20;;;;;;;12.60;4.65;;;;;;;;;;6390223;22;19997;-76
2023/12/27 05:34:45;;;;;;;11.73;3.55;;;;;;;;;;6388840;22;20059;-76
2023/12/27 05:37:11;;;;;;;14.43;4.28;;;;;;;;;;6360990;22;20010;-76
2023/12/27 05:39:37;;;;;;;8.15;3.88;;;;;;;;;;6360308;22;20401;-76
2023/12/27 05:42:02;;;;;;;5.78;2.85;;;;;;;;;;6389697;22;20023;-76
2023/12/27 05:44:28;;;;;;;7.78;4.22;;;;;;;;;;6390788;22;20013;-76
2023/12/27 05:46:53;;;;;;;7.30;3.78;;;;;;;;;;6360762;22;20070;-76
2023/12/27 05:49:18;;;;;;;5.20;3.10;;;;;;;;;;6389224;22;20010;-76
2023/12/27 05:51:44;;;;;;;7.80;3.65;;;;;;;;;;6389481;22;20373;-76
2023/12/27 05:54:10;;;;;;;7.10;3.15;;;;;;;;;;6389413;22;20008;-76
2023/12/27 05:56:35;;;;;;;7.38;3.47;;;;;;;;;;6390459;22;19994;-76
2023/12/27 05:59:01;;;;;;;8.50;3.78;;;;;;;;;;6360775;22;20010;-76
2023/12/27 06:01:26;;;;;;;8.13;3.30;;;;;;;;;;6389256;22;20010;-77
2023/12/27 06:03:51;;;;;;;6.85;2.80;;;;;;;;;;6389255;22;20021;-77
2023/12/27 06:06:17;;;;;;;6.30;3.17;;;;;;;;;;6388643;22;20022;-77
2023/12/27 06:08:42;;;;;;;6.57;3.47;;;;;;;;;;6361307;22;20441;-77
2023/12/27 06:11:12;;;;;;;4.43;2.47;;;;;;;;;;6361359;22;20074;-77
2023/12/27 06:13:40;;;;;;;7.25;3.55;;;;;;;;;;6360289;22;20085;-77
2023/12/27 06:16:06;;;;;;;8.23;3.13;;;;;;;;;;6361831;22;20010;-77
2023/12/27 06:18:33;;;;;;;10.35;3.67;;;;;;;;;;6389670;22;20085;-77
2023/12/27 06:20:58;;;;;;;7.45;3.63;;;;;;;;;;6361063;22;20014;-77
2023/12/27 06:23:24;;;;;;;10.85;3.58;;;;;;;;;;6390927;22;20006;-76
2023/12/27 06:25:49;;;;;;;5.05;2.65;;;;;;;;;;6361897;22;20033;-77
2023/12/27 06:28:14;;;;;;;3.90;2.65;;;;;;;;;;6361241;22;20010;-77
2023/12/27 06:30:40;;;;;;;7.80;3.30;;;;;;;;;;6396345;22;20010;-77
2023/12/27 06:33:06;;;;;;;6.75;2.70;;;;;;;;;;6402835;22;20489;-77
2023/12/27 06:35:31;;;;;;;7.07;2.47;;;;;;;;;;6370557;22;20005;-77
2023/12/27 06:37:56;;;;;;;5.70;2.35;;;;;;;;;;6389032;22;20469;-77
2023/12/27 06:40:22;;;;;;;7.20;3.13;;;;;;;;;;6358343;22;20469;-77
2023/12/27 06:42:47;;;;;;;9.73;2.85;;;;;;;;;;6389193;22;20414;-77
2023/12/27 06:45:13;;;;;;;4.40;2.60;;;;;;;;;;6388850;22;20020;-77
2023/12/27 06:47:38;;;;;;;4.28;2.25;;;;;;;;;;6389257;22;20004;-77
2023/12/27 06:50:04;;;;;;;4.40;2.20;;;;;;;;;;6361777;22;19997;-76
2023/12/27 06:52:30;;;;;;;4.28;1.80;;;;;;;;;;6387830;22;20396;-77
2023/12/27 06:54:55;;;;;;;3.08;1.83;;;;;;;;;;6362135;22;20014;-77
2023/12/27 06:57:20;;;;;;;12.38;3.13;;;;;;;;;;6393550;22;20057;-77
2023/12/27 06:59:46;;;;;;;9.35;2.10;;;;;;;;;;6360016;22;20425;-77
2023/12/27 07:02:12;;;;;;;6.15;1.90;;;;;;;;;;6388405;22;20486;-77
2023/12/27 07:04:37;;;;;;;5.90;2.40;;;;;;;;;;6389334;22;20018;-77
2023/12/27 07:07:03;;;;;;;8.00;2.70;;;;;;;;;;6360534;22;20022;-77
2023/12/27 07:09:28;;;;;;;3.42;1.90;;;;;;;;;;6388276;22;20420;-77
2023/12/27 07:11:53;;;;;;;3.22;2.03;;;;;;;;;;6388745;22;20054;-76
2023/12/27 07:14:19;;;;;;;4.65;2.03;;;;;;;;;;6389035;22;19997;-76
2023/12/27 07:16:45;;;;;;;4.18;1.92;;;;;;;;;;6360178;22;20014;-76
2023/12/27 07:19:10;;;;;;;6.93;2.42;;;;;;;;;;6388939;22;20721;-75
2023/12/27 07:21:36;;;;;;;4.43;2.40;;;;;;;;;;6388553;22;20005;-77
2023/12/27 07:24:01;;;;;;;5.68;2.60;;;;;;;;;;6388470;22;20040;-76
2023/12/27 07:26:26;;;;;;;2.95;1.40;;;;;;;;;;6389462;22;19997;-76
2023/12/27 07:28:52;;;;;;;4.30;2.35;;;;;;;;;;6388449;22;20013;-77
2023/12/27 07:31:18;;;;;;;6.43;2.63;;;;;;;;;;6359470;22;20014;-77
2023/12/27 07:33:43;;;;;;;7.78;2.85;;;;;;;;;;6361090;22;20006;-76
2023/12/27 07:36:08;;;;;;;3.17;1.67;;;;;;;;;;6388689;22;20021;-77
2023/12/27 07:38:34;;;;;;;4.97;1.90;;;;;;;;;;6388564;22;20002;-76
2023/12/27 07:41:00;;;;;;;6.18;2.80;;;;;;;;;;6387951;22;20019;-76
2023/12/27 07:43:25;;;;;;;9.27;3.28;;;;;;;;;;6360448;22;20032;-76
2023/12/27 07:45:51;;;;;;;5.35;2.58;;;;;;;;;;6361736;22;20550;-77
2023/12/27 07:48:16;;;;;;;7.43;3.55;;;;;;;;;;6392770;22;20013;-76
2023/12/27 07:50:42;;;;;;;3.97;2.17;;;;;;;;;;6374888;22;20001;-76
2023/12/27 07:53:08;;;;;;;6.50;3.00;;;;;;;;;;6382349;22;20464;-76
2023/12/27 07:55:34;;;;;;;8.80;2.15;;;;;;;;;;6394482;22;20017;-76
2023/12/27 07:57:59;;;;;;;9.13;3.22;;;;;;;;;;6360634;22;20066;-76
2023/12/27 08:00:24;;;;;;;11.05;3.90;;;;;;;;;;6388472;22;20016;-76
2023/12/27 08:02:50;;;;;;;5.88;2.92;;;;;;;;;;6388098;22;20006;-76
2023/12/27 08:05:16;;;;;;;3.65;2.03;;;;;;;;;;6360707;22;20000;-75
2023/12/27 08:07:42;;;;;;;7.10;3.53;;;;;;;;;;6361721;22;20018;-75
2023/12/27 08:10:08;;;;;;;12.90;4.47;;;;;;;;;;6361818;22;20010;-76
2023/12/27 08:12:34;;;;;;;6.40;2.50;;;;;;;;;;6361504;22;20010;-76
2023/12/27 08:15:00;;;;;;;9.13;3.20;;;;;;;;;;6362027;22;20006;-76
2023/12/27 08:17:26;;;;;;;7.07;2.80;;;;;;;;;;6361309;22;20069;-76
2023/12/27 08:19:52;;;;;;;11.68;4.88;;;;;;;;;;6356037;22;20017;-76
2023/12/27 08:22:17;;;;;;;12.52;4.75;;;;;;;;;;6386313;22;20014;-76
2023/12/27 08:24:43;;;;;;;8.57;4.43;;;;;;;;;;6359002;22;20005;-76
2023/12/27 08:27:08;;;;;;;11.00;5.05;;;;;;;;;;6388110;22;20006;-76
2023/12/27 08:29:34;;;;;;;8.52;3.78;;;;;;;;;;6389242;22;20502;-76
2023/12/27 08:32:00;;;;;;;8.20;3.20;;;;;;;;;;6388379;22;20105;-75
2023/12/27 08:34:25;;;;;;;9.45;3.35;;;;;;;;;;6359344;22;20088;-75
2023/12/27 08:36:51;;;;;;;7.18;3.47;;;;;;;;;;6389037;22;20010;-75
2023/12/27 08:39:16;;;;;;;7.40;3.30;;;;;;;;;;6390319;22;20010;-75
2023/12/27 08:41:41;;;;;;;8.13;4.22;;;;;;;;;;6362993;22;20002;-75
2023/12/27 08:44:07;;;;;;;4.65;2.67;;;;;;;;;;6391406;22;20006;-75
2023/12/27 08:46:33;;;;;;;4.03;2.67;;;;;;;;;;6362034;22;20041;-76
2023/12/27 08:48:58;;;;;;;8.80;3.65;;;;;;;;;;6361912;22;20013;-75
2023/12/27 08:51:24;;;;;;;8.80;4.20;;;;;;;;;;6390135;22;20063;-75
2023/12/27 08:53:49;;;;;;;4.72;2.75;;;;;;;;;;6362306;22;19998;-75
2023/12/27 08:56:15;;;;;;;5.07;2.75;;;;;;;;;;6392839;22;20037;-75
2023/12/27 08:58:40;;;;;;;8.55;3.40;;;;;;;;;;6391845;22;20069;-76
2023/12/27 09:01:05;;;;;;;6.63;2.67;;;;;;;;;;6390770;22;20012;-76
2023/12/27 09:03:31;;;;;;;7.88;3.53;;;;;;;;;;6390470;22;20018;-75
2023/12/27 09:05:56;;;;;;;8.40;3.28;;;;;;;;;;6364596;22;20009;-75
2023/12/27 09:08:21;;;;;;;6.20;3.05;;;;;;;;;;6373138;22;20001;-75
2023/12/27 09:10:47;;;;;;;8.73;2.95;;;;;;;;;;6375855;22;20034;-75
2023/12/27 09:13:13;;;;;;;11.32;3.80;;;;;;;;;;6393613;22;20010;-75
2023/12/27 09:15:38;;;;;;;12.88;3.45;;;;;;;;;;6389585;22;20081;-75
2023/12/27 09:18:04;;;;;;;6.03;2.67;;;;;;;;;;6389235;22;20361;-75
2023/12/27 09:20:29;;;;;;;8.25;3.40;;;;;;;;;;6361572;22;19994;-75
2023/12/27 09:22:54;;;;;;;8.23;2.97;;;;;;;;;;6360114;22;20647;-76
2023/12/27 09:25:20;;;;;;;5.78;2.83;;;;;;;;;;6389277;22;20021;-76
2023/12/27 09:27:46;;;;;;;10.73;3.70;;;;;;;;;;6387018;22;20006;-75
2023/12/27 09:30:12;;;;;;;11.32;3.78;;;;;;;;;;6387603;22;20009;-81
2023/12/27 09:32:39;;;;;;;6.50;3.00;;;;;;;;;;6386572;22;20182;-82
2023/12/27 09:35:04;;;;;;;8.50;3.13;;;;;;;;;;6390300;22;20133;-82
2023/12/27 09:37:30;;;;;;;8.13;3.47;;;;;;;;;;6360351;22;20422;-82
2023/12/27 09:39:56;;;;;;;8.20;3.88;;;;;;;;;;6361163;22;20753;-79
2023/12/27 09:42:22;;;;;;;9.13;3.53;;;;;;;;;;6389501;22;20565;-82
2023/12/27 09:44:49;;;;;;;6.03;3.40;;;;;;;;;;6362147;22;20002;-82
2023/12/27 09:47:16;;;;;;;8.75;3.25;;;;;;;;;;6361210;22;20006;-82
2023/12/27 09:49:41;;;;;;;4.95;2.67;;;;;;;;;;6361254;22;20028;-81
2023/12/27 09:52:08;;;;;;;11.63;3.10;;;;;;;;;;6388811;22;20679;-81
2023/12/27 09:54:33;;;;;;;6.30;3.00;;;;;;;;;;6360578;22;20452;-82
2023/12/27 09:56:59;;;;;;;8.20;3.88;;;;;;;;;;6362522;22;20010;-82
2023/12/27 09:59:28;;;;;;;4.22;2.17;;;;;;;;;;6362288;22;20400;-82
2023/12/27 10:02:06;;;;;;;11.23;2.88;;;;;;;;;;6389573;22;20009;-82
2023/12/27 10:04:55;;;;;;;12.02;3.13;;;;;;;;;;6360594;22;20094;-82
2023/12/27 10:07:22;;;;;;;9.05;3.95;;;;;;;;;;6356234;22;20105;-83
2023/12/27 10:09:48;;;;;;;6.90;2.58;;;;;;;;;;6355846;22;20002;-82
2023/12/27 10:12:14;;;;;;;6.32;2.88;;;;;;;;;;6355990;22;20416;-82
2023/12/27 10:14:41;;;;;;;5.07;3.17;;;;;;;;;;6354479;22;20007;-76
2023/12/27 10:17:06;;;;;;;5.70;2.63;;;;;;;;;;6352881;22;20583;-76
2023/12/27 10:19:43;;;;;;;4.80;2.80;;;;;;;;;;6358227;22;20018;-76
2023/12/27 10:22:10;;;;;;;8.85;3.00;;;;;;;;;;6356524;22;20086;-76
2023/12/27 10:24:36;;;;;;;6.05;2.30;;;;;;;;;;6358223;22;20023;-76
2023/12/27 10:27:09;;;;;;;5.82;2.92;;;;;;;;;;6368568;22;20156;-76
2023/12/27 10:29:35;;;;;;;5.20;2.53;;;;;;;;;;6378634;22;19995;-77
2023/12/27 10:32:02;;;;;;;7.20;3.08;;;;;;;;;;6364221;22;20089;-76
2023/12/27 10:34:28;;;;;;;3.42;1.67;;;;;;;;;;6354215;22;20368;-76
2023/12/27 10:36:55;;;;;;;5.03;2.80;;;;;;;;;;6354488;22;20381;-76
2023/12/27 10:39:21;;;;;;;4.10;2.13;;;;;;;;;;6354491;22;20078;-76
2023/12/27 10:41:46;;;;;;;8.57;2.47;;;;;;;;;;6363334;22;20516;-77
2023/12/27 10:44:17;;;;;;;4.15;2.38;;;;;;;;;;6361707;22;20494;-76
2023/12/27 10:46:43;;;;;;;3.65;1.98;;;;;;;;;;6352486;22;20113;-76
2023/12/27 10:49:10;;;;;;;5.07;1.65;;;;;;;;;;6353252;22;20014;-76
2023/12/27 10:51:38;;;;;;;4.95;2.30;;;;;;;;;;6354372;22;20480;-76
2023/12/27 10:54:05;;;;;;;5.97;3.08;;;;;;;;;;6352492;22;20010;-76
2023/12/27 10:56:37;;;;;;;3.63;2.13;;;;;;;;;;6354158;22;20002;-75
2023/12/27 10:59:04;;;;;;;4.25;2.20;;;;;;;;;;6348442;22;20022;-76
2023/12/27 11:01:32;;;;;;;6.10;2.88;;;;;;;;;;6350502;22;20094;-76
2023/12/27 11:03:59;;;;;;;2.95;1.77;;;;;;;;;;6353451;22;20018;-76
2023/12/27 11:06:28;;;;;;;7.68;3.38;;;;;;;;;;6343580;22;20022;-76
2023/12/27 11:08:54;;;;;;;4.70;2.63;;;;;;;;;;6321038;22;20002;-76
2023/12/27 11:11:23;;;;;;;4.60;1.88;;;;;;;;;;6323043;22;20525;-76
2023/12/27 11:13:50;;;;;;;11.15;3.50;;;;;;;;;;6322337;22;20068;-76
2023/12/27 11:16:17;;;;;;;5.45;2.30;;;;;;;;;;6322572;22;20021;-76
2023/12/27 11:18:45;;;;;;;5.65;2.50;;;;;;;;;;6320229;22;20007;-77
2023/12/27 11:21:11;;;;;;;7.93;2.92;;;;;;;;;;6320167;22;20027;-76
2023/12/27 11:23:36;;;;;;;6.68;2.33;;;;;;;;;;6319662;22;20033;-76
2023/12/27 11:26:04;;;;;;;5.80;2.03;;;;;;;;;;6319765;22;20097;-77
2023/12/27 11:28:33;;;;;;;8.82;2.00;;;;;;;;;;6320346;22;20011;-76
2023/12/27 11:31:06;;;;;;;5.50;2.92;;;;;;;;;;5044527;27;20655;-77
2023/12/27 11:33:34;;;;;;;3.45;1.90;;;;;;;;;;5034959;28;20037;-76
2023/12/27 11:35:59;;;;;;;10.98;2.85;;;;;;;;;;5037115;28;20039;-76
2023/12/27 11:38:26;;;;;;;4.55;2.22;;;;;;;;;;5037262;28;20031;-76
2023/12/27 11:40:52;;;;;;;4.53;2.40;;;;;;;;;;5038308;28;20132;-77
2023/12/27 11:43:23;;;;;;;5.32;2.50;;;;;;;;;;5041130;28;20124;-76
2023/12/27 11:45:59;;;;;;;9.07;2.65;;;;;;;;;;5045689;28;20127;-76
2023/12/27 11:48:27;;;;;;;5.22;2.35;;;;;;;;;;5046570;28;20091;-76
2023/12/27 11:50:55;;;;;;;5.70;2.63;;;;;;;;;;5034593;28;20498;-76
2023/12/27 11:53:24;;;;;;;7.82;2.85;;;;;;;;;;5034060;28;20033;-76
2023/12/27 11:55:51;;;;;;;5.70;2.55;;;;;;;;;;5034493;28;20061;-77
2023/12/27 11:58:38;;;;;;;7.28;2.25;;;;;;;;;;5038059;28;20092;-77
2023/12/27 12:01:25;;;;;;;5.15;2.17;;;;;;;;;;5037670;28;20052;-77
2023/12/27 12:04:31;;;;;;;6.43;2.33;;;;;;;;;;5035938;28;20036;-77
2023/12/27 12:07:08;;;;;;;6.32;1.98;;;;;;;;;;5029295;28;20034;-77
2023/12/27 12:09:37;;;;;;;3.17;1.92;;;;;;;;;;5016100;28;20071;-77
2023/12/27 12:12:23;;;;;;;2.85;1.70;;;;;;;;;;5017550;28;20125;-76
2023/12/27 12:14:53;;;;;;;4.25;2.40;;;;;;;;;;5037410;28;20032;-76
2023/12/27 12:17:22;;;;;;;10.70;2.65;;;;;;;;;;5036994;28;20025;-76
2023/12/27 12:19:49;;;;;;;5.72;2.33;;;;;;;;;;5032066;28;20055;-76
2023/12/27 12:22:15;;;;;;;6.20;2.25;;;;;;;;;;5016559;28;20029;-77
2023/12/27 12:24:42;;;;;;;4.55;2.10;;;;;;;;;;5016826;28;20041;-77
2023/12/27 12:27:07;;;;;;;8.15;2.40;;;;;;;;;;5021568;28;20038;-77
2023/12/27 12:29:33;;;;;;;6.53;2.30;;;;;;;;;;5020499;28;20045;-77
2023/12/27 12:31:58;;;;;;;5.78;1.52;;;;;;;;;;5025193;28;20044;-77
2023/12/27 12:34:25;;;;;;;2.45;1.60;;;;;;;;;;5026296;28;20075;-77
2023/12/27 12:36:52;;;;;;;6.55;2.47;;;;;;;;;;5025628;28;20517;-76
2023/12/27 12:39:18;;;;;;;6.38;2.10;;;;;;;;;;5036574;28;20086;-76
2023/12/27 12:41:44;;;;;;;4.78;1.38;;;;;;;;;;5018966;28;20029;-77
2023/12/27 12:44:10;;;;;;;6.55;2.30;;;;;;;;;;5012270;28;20072;-77
2023/12/27 12:46:36;;;;;;;7.00;2.92;;;;;;;;;;5004580;28;20061;-77
2023/12/27 12:49:08;;;;;;;3.60;1.77;;;;;;;;;;5006726;28;20049;-77
2023/12/27 12:51:34;;;;;;;5.43;2.22;;;;;;;;;;5010619;28;20045;-76
2023/12/27 12:54:00;;;;;;;6.90;2.00;;;;;;;;;;5023203;28;20033;-76
2023/12/27 12:56:26;;;;;;;1.85;1.48;;;;;;;;;;5017526;28;20068;-76
2023/12/27 12:58:52;;;;;;;5.47;2.35;;;;;;;;;;5002392;28;20038;-78
2023/12/27 13:01:19;;;;;;;4.93;2.17;;;;;;;;;;5016604;28;20100;-78
2023/12/27 13:03:48;;;;;;;6.50;2.03;;;;;;;;;;5024645;28;20044;-78
2023/12/27 13:06:15;;;;;;;4.13;2.10;;;;;;;;;;5032170;28;20033;-79
2023/12/27 13:08:47;;;;;;;5.65;2.20;;;;;;;;;;5029317;28;20068;-78
2023/12/27 13:11:14;;;;;;;3.00;1.60;;;;;;;;;;5016321;28;20037;-78
2023/12/27 13:13:40;;;;;;;5.72;1.95;;;;;;;;;;5012631;28;20036;-78
2023/12/27 13:16:06;;;;;;;2.50;1.50;;;;;;;;;;5021736;28;20037;-78
2023/12/27 13:18:32;;;;;;;6.15;1.98;;;;;;;;;;5022356;28;20593;-78
2023/12/27 13:20:57;;;;;;;4.65;1.80;;;;;;;;;;5024028;28;20026;-78
2023/12/27 13:23:22;;;;;;;4.75;2.17;;;;;;;;;;5021792;28;20107;-77
2023/12/27 13:25:48;;;;;;;5.00;2.03;;;;;;;;;;5019394;28;20088;-77
2023/12/27 13:28:14;;;;;;;6.05;2.00;;;;;;;;;;5014893;28;20977;-77
2023/12/27 13:30:39;;;;;;;4.07;1.75;;;;;;;;;;5014205;28;20127;-77
2023/12/27 13:33:05;;;;;;;3.65;2.00;;;;;;;;;;5021682;28;20754;-77
2023/12/27 13:35:31;;;;;;;6.78;2.17;;;;;;;;;;5023474;28;20037;-76
2023/12/27 13:37:57;;;;;;;5.20;2.22;;;;;;;;;;5001379;28;20056;-76
2023/12/27 13:40:23;;;;;;;3.50;1.60;;;;;;;;;;4999606;28;20118;-77
2023/12/27 13:42:49;;;;;;;4.18;1.65;;;;;;;;;;5019050;28;20080;-77
2023/12/27 13:45:14;;;;;;;4.90;1.70;;;;;;;;;;5020898;28;20711;-77
2023/12/27 13:47:39;;;;;;;2.30;1.75;;;;;;;;;;5022789;28;20103;-77
2023/12/27 13:50:05;;;;;;;5.38;1.90;;;;;;;;;;5021791;28;20155;-77
2023/12/27 13:52:30;;;;;;;5.85;1.95;;;;;;;;;;5021940;28;20045;-81
2023/12/27 13:54:56;;;;;;;4.35;1.52;;;;;;;;;;5023177;28;20037;-79
2023/12/27 13:57:22;;;;;;;5.63;1.90;;;;;;;;;;5015746;28;20049;-81
2023/12/27 13:59:48;;;;;;;3.65;1.70;;;;;;;;;;5021278;28;20021;-82
2023/12/27 14:02:14;;;;;;;4.00;1.40;;;;;;;;;;5022927;28;20029;-82
2023/12/27 14:04:41;;;;;;;1.60;1.23;;;;;;;;;;5023525;28;20044;-81
2023/12/27 14:07:06;;;;;;;2.72;1.63;;;;;;;;;;5023743;28;20426;-80
2023/12/27 14:09:31;;;;;;;4.28;1.75;;;;;;;;;;5023336;28;20052;-83
2023/12/27 14:11:57;;;;;;;11.38;2.05;;;;;;;;;;5010530;28;20029;-81
2023/12/27 14:14:22;;;;;;;7.38;2.45;;;;;;;;;;5009459;28;20513;-79
2023/12/27 14:16:48;;;;;;;6.72;1.80;;;;;;;;;;5014030;28;20130;-80
2023/12/27 14:19:14;;;;;;;8.82;2.58;;;;;;;;;;5036306;28;20037;-80
2023/12/27 14:21:39;;;;;;;4.28;1.92;;;;;;;;;;5040664;28;20040;-79
2023/12/27 14:24:05;;;;;;;5.57;3.00;;;;;;;;;;5055316;28;20104;-79
2023/12/27 14:26:31;;;;;;;4.22;1.90;;;;;;;;;;5060612;28;20033;-81
2023/12/27 14:28:57;;;;;;;4.18;1.98;;;;;;;;;;5027385;28;20045;-82
2023/12/27 14:31:23;;;;;;;6.78;2.70;;;;;;;;;;5025882;28;20525;-81
2023/12/27 14:33:48;;;;;;;6.95;2.78;;;;;;;;;;5041471;28;20047;-80